sensor_id;sensor_type;location;lat;lon;timestamp;P1;durP1;ratioP1;P2;durP2;ratioP2
74177;SDS011;62540;48.456;-4.456;2022-10-15T00:00:28;4.50;;;3.75;;
74177;SDS011;62540;48.456;-4.456;2022-10-15T00:02:54;8.50;;;5.25;;
74177;SDS011;62540;48.456;-4.456;2022-10-15T00:05:20;2.50;;;2.25;;
74177;SDS011;62540;48.456;-4.456;2022-10-15T00:07:46;4.50;;;2.75;;
74177;SDS011;62540;48.456;-4.456;2022-10-15T00:10:12;2.75;;;2.75;;
74177;SDS011;62540;48.456;-4.456;2022-10-15T00:12:38;2.00;;;2.00;;
74177;SDS011;62540;48.456;-4.456;2022-10-15T00:15:04;4.25;;;3.75;;
74177;SDS011;62540;48.456;-4.456;2022-10-15T00:17:30;2.50;;;2.50;;
74177;SDS011;62540;48.456;-4.456;2022-10-15T00:19:56;1.75;;;1.25;;
74177;SDS011;62540;48.456;-4.456;2022-10-15T00:22:22;3.00;;;1.75;;
74177;SDS011;62540;48.456;-4.456;2022-10-15T00:24:47;1.00;;;1.00;;
74177;SDS011;62540;48.456;-4.456;2022-10-15T00:27:13;2.75;;;2.75;;
74177;SDS011;62540;48.456;-4.456;2022-10-15T00:29:38;3.00;;;2.00;;
74177;SDS011;62540;48.456;-4.456;2022-10-15T00:32:03;0.75;;;0.75;;
74177;SDS011;62540;48.456;-4.456;2022-10-15T00:34:29;0.00;;;0.00;;
74177;SDS011;62540;48.456;-4.456;2022-10-15T00:36:55;1.75;;;1.75;;
74177;SDS011;62540;48.456;-4.456;2022-10-15T00:39:20;1.25;;;0.50;;
74177;SDS011;62540;48.456;-4.456;2022-10-15T00:41:46;2.50;;;1.50;;
74177;SDS011;62540;48.456;-4.456;2022-10-15T00:49:19;1.00;;;1.00;;
74177;SDS011;62540;48.456;-4.456;2022-10-15T00:51:51;0.50;;;0.50;;
74177;SDS011;62540;48.456;-4.456;2022-10-15T00:54:21;1.50;;;1.00;;
74177;SDS011;62540;48.456;-4.456;2022-10-15T00:56:48;1.00;;;1.00;;
74177;SDS011;62540;48.456;-4.456;2022-10-15T00:59:14;0.00;;;0.00;;
74177;SDS011;62540;48.456;-4.456;2022-10-15T01:01:42;0.00;;;0.00;;
74177;SDS011;62540;48.456;-4.456;2022-10-15T01:04:08;1.75;;;1.00;;
74177;SDS011;62540;48.456;-4.456;2022-10-15T01:06:35;0.00;;;0.00;;
74177;SDS011;62540;48.456;-4.456;2022-10-15T01:09:01;1.25;;;0.25;;
74177;SDS011;62540;48.456;-4.456;2022-10-15T01:17:18;0.00;;;0.00;;
74177;SDS011;62540;48.456;-4.456;2022-10-15T01:23:10;0.00;;;0.00;;
74177;SDS011;62540;48.456;-4.456;2022-10-15T01:25:53;0.00;;;0.00;;
74177;SDS011;62540;48.456;-4.456;2022-10-15T01:28:47;0.00;;;0.00;;
74177;SDS011;62540;48.456;-4.456;2022-10-15T01:31:31;0.00;;;0.00;;
74177;SDS011;62540;48.456;-4.456;2022-10-15T01:34:20;0.00;;;0.00;;
74177;SDS011;62540;48.456;-4.456;2022-10-15T01:37:12;0.00;;;0.00;;
74177;SDS011;62540;48.456;-4.456;2022-10-15T01:39:43;0.00;;;0.00;;
74177;SDS011;62540;48.456;-4.456;2022-10-15T01:42:16;0.00;;;0.00;;
74177;SDS011;62540;48.456;-4.456;2022-10-15T01:44:49;0.00;;;0.00;;
74177;SDS011;62540;48.456;-4.456;2022-10-15T01:47:22;0.00;;;0.00;;
74177;SDS011;62540;48.456;-4.456;2022-10-15T01:49:54;0.00;;;0.00;;
74177;SDS011;62540;48.456;-4.456;2022-10-15T01:52:22;1.75;;;0.75;;
74177;SDS011;62540;48.456;-4.456;2022-10-15T01:54:52;0.00;;;0.00;;
74177;SDS011;62540;48.456;-4.456;2022-10-15T01:57:19;0.00;;;0.00;;
74177;SDS011;62540;48.456;-4.456;2022-10-15T01:59:46;0.00;;;0.00;;
74177;SDS011;62540;48.456;-4.456;2022-10-15T02:02:12;0.00;;;0.00;;
74177;SDS011;62540;48.456;-4.456;2022-10-15T02:04:38;0.00;;;0.00;;
74177;SDS011;62540;48.456;-4.456;2022-10-15T02:07:22;0.00;;;0.00;;
74177;SDS011;62540;48.456;-4.456;2022-10-15T02:15:26;0.00;;;0.00;;
74177;SDS011;62540;48.456;-4.456;2022-10-15T02:18:10;0.00;;;0.00;;
74177;SDS011;62540;48.456;-4.456;2022-10-15T02:20:57;0.75;;;0.00;;
74177;SDS011;62540;48.456;-4.456;2022-10-15T02:25:59;0.75;;;0.75;;
74177;SDS011;62540;48.456;-4.456;2022-10-15T02:28:30;0.75;;;0.75;;
74177;SDS011;62540;48.456;-4.456;2022-10-15T02:30:59;1.75;;;1.75;;
74177;SDS011;62540;48.456;-4.456;2022-10-15T02:33:27;2.50;;;1.50;;
74177;SDS011;62540;48.456;-4.456;2022-10-15T02:35:54;0.75;;;0.75;;
74177;SDS011;62540;48.456;-4.456;2022-10-15T02:38:22;0.25;;;0.25;;
74177;SDS011;62540;48.456;-4.456;2022-10-15T02:40:51;0.75;;;0.75;;
74177;SDS011;62540;48.456;-4.456;2022-10-15T02:43:19;1.00;;;0.75;;
74177;SDS011;62540;48.456;-4.456;2022-10-15T02:45:45;2.00;;;1.50;;
74177;SDS011;62540;48.456;-4.456;2022-10-15T02:48:11;1.25;;;0.75;;
74177;SDS011;62540;48.456;-4.456;2022-10-15T02:50:37;0.75;;;0.00;;
74177;SDS011;62540;48.456;-4.456;2022-10-15T02:53:02;0.75;;;0.75;;
74177;SDS011;62540;48.456;-4.456;2022-10-15T02:55:28;1.00;;;0.75;;
74177;SDS011;62540;48.456;-4.456;2022-10-15T02:57:54;1.75;;;0.75;;
74177;SDS011;62540;48.456;-4.456;2022-10-15T03:00:19;1.25;;;0.00;;
74177;SDS011;62540;48.456;-4.456;2022-10-15T03:02:44;1.50;;;0.75;;
74177;SDS011;62540;48.456;-4.456;2022-10-15T03:05:10;0.75;;;0.00;;
74177;SDS011;62540;48.456;-4.456;2022-10-15T03:07:35;1.75;;;1.00;;
74177;SDS011;62540;48.456;-4.456;2022-10-15T03:10:01;2.50;;;1.75;;
74177;SDS011;62540;48.456;-4.456;2022-10-15T03:12:26;0.75;;;0.75;;
74177;SDS011;62540;48.456;-4.456;2022-10-15T03:14:52;2.25;;;0.50;;
74177;SDS011;62540;48.456;-4.456;2022-10-15T03:17:17;0.00;;;0.00;;
74177;SDS011;62540;48.456;-4.456;2022-10-15T03:19:43;0.25;;;0.00;;
74177;SDS011;62540;48.456;-4.456;2022-10-15T03:22:08;1.00;;;1.00;;
74177;SDS011;62540;48.456;-4.456;2022-10-15T03:24:34;2.25;;;0.75;;
74177;SDS011;62540;48.456;-4.456;2022-10-15T03:26:59;2.75;;;1.25;;
74177;SDS011;62540;48.456;-4.456;2022-10-15T03:29:24;1.00;;;0.50;;
74177;SDS011;62540;48.456;-4.456;2022-10-15T03:31:50;0.75;;;0.75;;
74177;SDS011;62540;48.456;-4.456;2022-10-15T03:34:16;0.75;;;0.75;;
74177;SDS011;62540;48.456;-4.456;2022-10-15T03:36:42;0.75;;;0.75;;
74177;SDS011;62540;48.456;-4.456;2022-10-15T03:39:07;1.00;;;1.00;;
74177;SDS011;62540;48.456;-4.456;2022-10-15T03:41:33;2.25;;;1.25;;
74177;SDS011;62540;48.456;-4.456;2022-10-15T03:44:05;2.00;;;1.00;;
74177;SDS011;62540;48.456;-4.456;2022-10-15T03:46:32;1.00;;;1.00;;
74177;SDS011;62540;48.456;-4.456;2022-10-15T03:48:58;2.75;;;2.00;;
74177;SDS011;62540;48.456;-4.456;2022-10-15T03:51:24;2.00;;;2.00;;
74177;SDS011;62540;48.456;-4.456;2022-10-15T03:53:49;1.50;;;1.00;;
74177;SDS011;62540;48.456;-4.456;2022-10-15T03:56:15;0.75;;;0.25;;
74177;SDS011;62540;48.456;-4.456;2022-10-15T03:58:41;1.50;;;0.00;;
74177;SDS011;62540;48.456;-4.456;2022-10-15T04:01:10;0.50;;;0.50;;
74177;SDS011;62540;48.456;-4.456;2022-10-15T04:03:37;0.00;;;0.00;;
74177;SDS011;62540;48.456;-4.456;2022-10-15T04:06:02;0.00;;;0.00;;
74177;SDS011;62540;48.456;-4.456;2022-10-15T04:08:28;0.00;;;0.00;;
74177;SDS011;62540;48.456;-4.456;2022-10-15T04:10:54;0.25;;;0.00;;
74177;SDS011;62540;48.456;-4.456;2022-10-15T04:13:19;1.25;;;0.00;;
74177;SDS011;62540;48.456;-4.456;2022-10-15T04:15:44;0.25;;;0.25;;
74177;SDS011;62540;48.456;-4.456;2022-10-15T04:18:11;0.75;;;0.50;;
74177;SDS011;62540;48.456;-4.456;2022-10-15T04:20:37;0.00;;;0.00;;
74177;SDS011;62540;48.456;-4.456;2022-10-15T04:23:02;0.00;;;0.00;;
74177;SDS011;62540;48.456;-4.456;2022-10-15T04:25:28;0.25;;;0.00;;
74177;SDS011;62540;48.456;-4.456;2022-10-15T04:27:54;0.25;;;0.00;;
74177;SDS011;62540;48.456;-4.456;2022-10-15T04:30:19;0.00;;;0.00;;
74177;SDS011;62540;48.456;-4.456;2022-10-15T04:32:44;0.00;;;0.00;;
74177;SDS011;62540;48.456;-4.456;2022-10-15T04:35:10;1.00;;;0.25;;
74177;SDS011;62540;48.456;-4.456;2022-10-15T04:37:36;0.00;;;0.00;;
74177;SDS011;62540;48.456;-4.456;2022-10-15T04:40:01;0.00;;;0.00;;
74177;SDS011;62540;48.456;-4.456;2022-10-15T04:42:29;0.25;;;0.00;;
74177;SDS011;62540;48.456;-4.456;2022-10-15T04:44:55;0.00;;;0.00;;
74177;SDS011;62540;48.456;-4.456;2022-10-15T04:47:20;0.25;;;0.00;;
74177;SDS011;62540;48.456;-4.456;2022-10-15T04:49:46;0.00;;;0.00;;
74177;SDS011;62540;48.456;-4.456;2022-10-15T04:52:11;0.00;;;0.00;;
74177;SDS011;62540;48.456;-4.456;2022-10-15T04:54:37;0.00;;;0.00;;
74177;SDS011;62540;48.456;-4.456;2022-10-15T04:57:03;0.00;;;0.00;;
74177;SDS011;62540;48.456;-4.456;2022-10-15T04:59:29;0.00;;;0.00;;
74177;SDS011;62540;48.456;-4.456;2022-10-15T05:01:54;0.00;;;0.00;;
74177;SDS011;62540;48.456;-4.456;2022-10-15T05:04:20;0.00;;;0.00;;
74177;SDS011;62540;48.456;-4.456;2022-10-15T05:06:45;0.50;;;0.00;;
74177;SDS011;62540;48.456;-4.456;2022-10-15T05:09:10;0.00;;;0.00;;
74177;SDS011;62540;48.456;-4.456;2022-10-15T05:11:36;0.00;;;0.00;;
74177;SDS011;62540;48.456;-4.456;2022-10-15T05:14:02;0.00;;;0.00;;
74177;SDS011;62540;48.456;-4.456;2022-10-15T05:16:28;0.00;;;0.00;;
74177;SDS011;62540;48.456;-4.456;2022-10-15T05:18:55;0.50;;;0.00;;
74177;SDS011;62540;48.456;-4.456;2022-10-15T05:21:22;0.00;;;0.00;;
74177;SDS011;62540;48.456;-4.456;2022-10-15T05:23:48;0.00;;;0.00;;
74177;SDS011;62540;48.456;-4.456;2022-10-15T05:26:16;0.00;;;0.00;;
74177;SDS011;62540;48.456;-4.456;2022-10-15T05:28:43;0.00;;;0.00;;
74177;SDS011;62540;48.456;-4.456;2022-10-15T05:31:10;0.00;;;0.00;;
74177;SDS011;62540;48.456;-4.456;2022-10-15T05:33:41;0.00;;;0.00;;
74177;SDS011;62540;48.456;-4.456;2022-10-15T05:36:10;0.00;;;0.00;;
74177;SDS011;62540;48.456;-4.456;2022-10-15T05:38:38;0.00;;;0.00;;
74177;SDS011;62540;48.456;-4.456;2022-10-15T05:41:04;0.00;;;0.00;;
74177;SDS011;62540;48.456;-4.456;2022-10-15T05:43:30;0.00;;;0.00;;
74177;SDS011;62540;48.456;-4.456;2022-10-15T05:45:56;0.00;;;0.00;;
74177;SDS011;62540;48.456;-4.456;2022-10-15T05:48:21;0.00;;;0.00;;
74177;SDS011;62540;48.456;-4.456;2022-10-15T05:50:47;0.00;;;0.00;;
74177;SDS011;62540;48.456;-4.456;2022-10-15T05:53:12;0.00;;;0.00;;
74177;SDS011;62540;48.456;-4.456;2022-10-15T05:55:38;0.00;;;0.00;;
74177;SDS011;62540;48.456;-4.456;2022-10-15T05:58:03;0.00;;;0.00;;
74177;SDS011;62540;48.456;-4.456;2022-10-15T06:00:29;1.00;;;0.00;;
74177;SDS011;62540;48.456;-4.456;2022-10-15T06:02:54;1.00;;;0.00;;
74177;SDS011;62540;48.456;-4.456;2022-10-15T06:05:19;0.00;;;0.00;;
74177;SDS011;62540;48.456;-4.456;2022-10-15T06:07:45;0.00;;;0.00;;
74177;SDS011;62540;48.456;-4.456;2022-10-15T06:10:10;0.00;;;0.00;;
74177;SDS011;62540;48.456;-4.456;2022-10-15T06:12:36;0.00;;;0.00;;
74177;SDS011;62540;48.456;-4.456;2022-10-15T06:15:03;0.50;;;0.00;;
74177;SDS011;62540;48.456;-4.456;2022-10-15T06:17:29;0.00;;;0.00;;
74177;SDS011;62540;48.456;-4.456;2022-10-15T06:19:55;0.50;;;0.00;;
74177;SDS011;62540;48.456;-4.456;2022-10-15T06:22:20;0.00;;;0.00;;
74177;SDS011;62540;48.456;-4.456;2022-10-15T06:24:46;0.00;;;0.00;;
74177;SDS011;62540;48.456;-4.456;2022-10-15T06:27:11;0.00;;;0.00;;
74177;SDS011;62540;48.456;-4.456;2022-10-15T06:29:37;0.00;;;0.00;;
74177;SDS011;62540;48.456;-4.456;2022-10-15T06:32:03;1.00;;;1.00;;
74177;SDS011;62540;48.456;-4.456;2022-10-15T06:34:29;1.25;;;1.00;;
74177;SDS011;62540;48.456;-4.456;2022-10-15T06:36:54;0.00;;;0.00;;
74177;SDS011;62540;48.456;-4.456;2022-10-15T06:39:20;0.00;;;0.00;;
74177;SDS011;62540;48.456;-4.456;2022-10-15T06:41:45;0.50;;;0.50;;
74177;SDS011;62540;48.456;-4.456;2022-10-15T06:44:10;0.00;;;0.00;;
74177;SDS011;62540;48.456;-4.456;2022-10-15T06:46:36;1.00;;;0.00;;
74177;SDS011;62540;48.456;-4.456;2022-10-15T06:49:02;0.00;;;0.00;;
74177;SDS011;62540;48.456;-4.456;2022-10-15T06:51:27;1.00;;;0.75;;
74177;SDS011;62540;48.456;-4.456;2022-10-15T06:53:52;1.00;;;0.00;;
74177;SDS011;62540;48.456;-4.456;2022-10-15T06:56:18;0.75;;;0.75;;
74177;SDS011;62540;48.456;-4.456;2022-10-15T06:58:44;0.00;;;0.00;;
74177;SDS011;62540;48.456;-4.456;2022-10-15T07:01:09;0.00;;;0.00;;
74177;SDS011;62540;48.456;-4.456;2022-10-15T07:03:35;0.00;;;0.00;;
74177;SDS011;62540;48.456;-4.456;2022-10-15T07:06:03;0.75;;;0.00;;
74177;SDS011;62540;48.456;-4.456;2022-10-15T07:08:30;0.00;;;0.00;;
74177;SDS011;62540;48.456;-4.456;2022-10-15T07:10:56;0.00;;;0.00;;
74177;SDS011;62540;48.456;-4.456;2022-10-15T07:13:22;0.00;;;0.00;;
74177;SDS011;62540;48.456;-4.456;2022-10-15T07:15:48;0.25;;;0.25;;
74177;SDS011;62540;48.456;-4.456;2022-10-15T07:18:18;0.25;;;0.25;;
74177;SDS011;62540;48.456;-4.456;2022-10-15T07:20:44;1.00;;;1.00;;
74177;SDS011;62540;48.456;-4.456;2022-10-15T07:23:09;1.00;;;1.00;;
74177;SDS011;62540;48.456;-4.456;2022-10-15T07:25:35;1.50;;;0.50;;
74177;SDS011;62540;48.456;-4.456;2022-10-15T07:28:00;1.25;;;1.00;;
74177;SDS011;62540;48.456;-4.456;2022-10-15T07:30:26;1.50;;;1.00;;
74177;SDS011;62540;48.456;-4.456;2022-10-15T07:32:52;0.50;;;0.00;;
74177;SDS011;62540;48.456;-4.456;2022-10-15T07:35:20;1.50;;;1.00;;
74177;SDS011;62540;48.456;-4.456;2022-10-15T07:37:46;0.00;;;0.00;;
74177;SDS011;62540;48.456;-4.456;2022-10-15T07:40:12;1.50;;;1.00;;
74177;SDS011;62540;48.456;-4.456;2022-10-15T07:42:37;1.75;;;0.50;;
74177;SDS011;62540;48.456;-4.456;2022-10-15T07:45:05;1.00;;;1.00;;
74177;SDS011;62540;48.456;-4.456;2022-10-15T07:47:30;0.00;;;0.00;;
74177;SDS011;62540;48.456;-4.456;2022-10-15T07:49:56;0.75;;;0.00;;
74177;SDS011;62540;48.456;-4.456;2022-10-15T07:52:21;0.00;;;0.00;;
74177;SDS011;62540;48.456;-4.456;2022-10-15T07:54:47;0.00;;;0.00;;
74177;SDS011;62540;48.456;-4.456;2022-10-15T07:57:12;0.00;;;0.00;;
74177;SDS011;62540;48.456;-4.456;2022-10-15T07:59:37;1.00;;;0.00;;
74177;SDS011;62540;48.456;-4.456;2022-10-15T08:02:03;0.75;;;0.00;;
74177;SDS011;62540;48.456;-4.456;2022-10-15T08:04:28;0.75;;;0.00;;
74177;SDS011;62540;48.456;-4.456;2022-10-15T08:06:54;0.00;;;0.00;;
74177;SDS011;62540;48.456;-4.456;2022-10-15T08:09:20;1.50;;;1.00;;
74177;SDS011;62540;48.456;-4.456;2022-10-15T08:11:45;0.50;;;0.00;;
74177;SDS011;62540;48.456;-4.456;2022-10-15T08:14:11;0.00;;;0.00;;
74177;SDS011;62540;48.456;-4.456;2022-10-15T08:16:36;0.50;;;0.00;;
74177;SDS011;62540;48.456;-4.456;2022-10-15T08:19:02;0.00;;;0.00;;
74177;SDS011;62540;48.456;-4.456;2022-10-15T08:21:27;1.75;;;0.00;;
74177;SDS011;62540;48.456;-4.456;2022-10-15T08:23:52;0.00;;;0.00;;
74177;SDS011;62540;48.456;-4.456;2022-10-15T08:26:18;0.00;;;0.00;;
74177;SDS011;62540;48.456;-4.456;2022-10-15T08:28:44;0.00;;;0.00;;
74177;SDS011;62540;48.456;-4.456;2022-10-15T08:31:09;0.00;;;0.00;;
74177;SDS011;62540;48.456;-4.456;2022-10-15T08:33:35;0.75;;;0.00;;
74177;SDS011;62540;48.456;-4.456;2022-10-15T08:36:05;0.00;;;0.00;;
74177;SDS011;62540;48.456;-4.456;2022-10-15T08:38:31;0.25;;;0.00;;
74177;SDS011;62540;48.456;-4.456;2022-10-15T08:40:58;0.25;;;0.00;;
74177;SDS011;62540;48.456;-4.456;2022-10-15T08:43:27;0.00;;;0.00;;
74177;SDS011;62540;48.456;-4.456;2022-10-15T08:46:00;0.00;;;0.00;;
74177;SDS011;62540;48.456;-4.456;2022-10-15T08:48:30;0.00;;;0.00;;
74177;SDS011;62540;48.456;-4.456;2022-10-15T08:54:02;0.50;;;0.00;;
74177;SDS011;62540;48.456;-4.456;2022-10-15T08:56:33;0.75;;;0.00;;
74177;SDS011;62540;48.456;-4.456;2022-10-15T09:04:29;0.00;;;0.00;;
74177;SDS011;62540;48.456;-4.456;2022-10-15T09:07:08;0.25;;;0.00;;
74177;SDS011;62540;48.456;-4.456;2022-10-15T09:09:47;1.50;;;0.25;;
74177;SDS011;62540;48.456;-4.456;2022-10-15T09:14:48;0.25;;;0.25;;
74177;SDS011;62540;48.456;-4.456;2022-10-15T09:17:21;1.00;;;0.00;;
74177;SDS011;62540;48.456;-4.456;2022-10-15T09:19:54;1.25;;;0.00;;
74177;SDS011;62540;48.456;-4.456;2022-10-15T09:22:27;1.50;;;1.00;;
74177;SDS011;62540;48.456;-4.456;2022-10-15T09:24:55;0.00;;;0.00;;
74177;SDS011;62540;48.456;-4.456;2022-10-15T09:27:31;0.00;;;0.00;;
74177;SDS011;62540;48.456;-4.456;2022-10-15T09:32:54;1.00;;;0.00;;
74177;SDS011;62540;48.456;-4.456;2022-10-15T09:35:38;0.00;;;0.00;;
74177;SDS011;62540;48.456;-4.456;2022-10-15T09:38:27;2.00;;;1.00;;
74177;SDS011;62540;48.456;-4.456;2022-10-15T09:43:54;0.75;;;0.00;;
74177;SDS011;62540;48.456;-4.456;2022-10-15T09:46:22;0.25;;;0.00;;
74177;SDS011;62540;48.456;-4.456;2022-10-15T09:51:34;1.00;;;0.00;;
74177;SDS011;62540;48.456;-4.456;2022-10-15T09:56:38;0.00;;;0.00;;
74177;SDS011;62540;48.456;-4.456;2022-10-15T09:59:18;0.00;;;0.00;;
74177;SDS011;62540;48.456;-4.456;2022-10-15T10:02:01;1.75;;;1.00;;
74177;SDS011;62540;48.456;-4.456;2022-10-15T10:04:29;0.00;;;0.00;;
74177;SDS011;62540;48.456;-4.456;2022-10-15T10:06:57;0.00;;;0.00;;
74177;SDS011;62540;48.456;-4.456;2022-10-15T10:09:30;0.00;;;0.00;;
74177;SDS011;62540;48.456;-4.456;2022-10-15T10:12:03;0.00;;;0.00;;
74177;SDS011;62540;48.456;-4.456;2022-10-15T10:14:41;0.00;;;0.00;;
74177;SDS011;62540;48.456;-4.456;2022-10-15T10:17:21;0.00;;;0.00;;
74177;SDS011;62540;48.456;-4.456;2022-10-15T10:28:34;1.00;;;0.00;;
74177;SDS011;62540;48.456;-4.456;2022-10-15T10:30:57;1.00;;;0.00;;
74177;SDS011;62540;48.456;-4.456;2022-10-15T10:33:31;0.00;;;0.00;;
74177;SDS011;62540;48.456;-4.456;2022-10-15T10:36:04;1.00;;;1.00;;
74177;SDS011;62540;48.456;-4.456;2022-10-15T10:38:32;1.00;;;0.00;;
74177;SDS011;62540;48.456;-4.456;2022-10-15T10:41:04;1.75;;;0.00;;
74177;SDS011;62540;48.456;-4.456;2022-10-15T10:43:34;1.00;;;0.00;;
74177;SDS011;62540;48.456;-4.456;2022-10-15T10:48:42;0.00;;;0.00;;
74177;SDS011;62540;48.456;-4.456;2022-10-15T10:53:46;1.25;;;1.00;;
74177;SDS011;62540;48.456;-4.456;2022-10-15T10:56:20;0.00;;;0.00;;
74177;SDS011;62540;48.456;-4.456;2022-10-15T10:58:59;0.00;;;0.00;;
74177;SDS011;62540;48.456;-4.456;2022-10-15T11:01:31;1.00;;;0.00;;
74177;SDS011;62540;48.456;-4.456;2022-10-15T11:03:56;0.00;;;0.00;;
74177;SDS011;62540;48.456;-4.456;2022-10-15T11:06:23;0.00;;;0.00;;
74177;SDS011;62540;48.456;-4.456;2022-10-15T11:09:12;0.25;;;0.00;;
74177;SDS011;62540;48.456;-4.456;2022-10-15T11:39:24;1.00;;;0.00;;
74177;SDS011;62540;48.456;-4.456;2022-10-15T11:50:46;0.25;;;0.00;;
74177;SDS011;62540;48.456;-4.456;2022-10-15T11:55:56;1.00;;;0.00;;
74177;SDS011;62540;48.456;-4.456;2022-10-15T11:58:34;0.00;;;0.00;;
74177;SDS011;62540;48.456;-4.456;2022-10-15T12:01:10;0.00;;;0.00;;
74177;SDS011;62540;48.456;-4.456;2022-10-15T12:03:58;0.00;;;0.00;;
74177;SDS011;62540;48.456;-4.456;2022-10-15T12:06:29;0.25;;;0.00;;
74177;SDS011;62540;48.456;-4.456;2022-10-15T12:09:01;1.00;;;0.00;;
74177;SDS011;62540;48.456;-4.456;2022-10-15T12:12:11;1.25;;;0.00;;
74177;SDS011;62540;48.456;-4.456;2022-10-15T12:14:40;0.00;;;0.00;;
74177;SDS011;62540;48.456;-4.456;2022-10-15T12:20:19;0.00;;;0.00;;
74177;SDS011;62540;48.456;-4.456;2022-10-15T12:30:32;0.50;;;0.00;;
74177;SDS011;62540;48.456;-4.456;2022-10-15T12:33:01;1.00;;;0.00;;
74177;SDS011;62540;48.456;-4.456;2022-10-15T12:35:37;0.00;;;0.00;;
74177;SDS011;62540;48.456;-4.456;2022-10-15T12:40:44;1.00;;;0.00;;
74177;SDS011;62540;48.456;-4.456;2022-10-15T12:43:16;1.25;;;1.25;;
74177;SDS011;62540;48.456;-4.456;2022-10-15T12:45:55;0.25;;;0.00;;
74177;SDS011;62540;48.456;-4.456;2022-10-15T12:48:33;0.25;;;0.00;;
74177;SDS011;62540;48.456;-4.456;2022-10-15T12:53:48;0.00;;;0.00;;
74177;SDS011;62540;48.456;-4.456;2022-10-15T12:58:44;0.00;;;0.00;;
74177;SDS011;62540;48.456;-4.456;2022-10-15T13:08:58;0.00;;;0.00;;
74177;SDS011;62540;48.456;-4.456;2022-10-15T13:11:34;0.00;;;0.00;;
74177;SDS011;62540;48.456;-4.456;2022-10-15T13:16:33;0.00;;;0.00;;
74177;SDS011;62540;48.456;-4.456;2022-10-15T13:19:00;0.00;;;0.00;;
74177;SDS011;62540;48.456;-4.456;2022-10-15T13:21:49;0.00;;;0.00;;
74177;SDS011;62540;48.456;-4.456;2022-10-15T13:24:21;0.00;;;0.00;;
74177;SDS011;62540;48.456;-4.456;2022-10-15T13:26:48;0.00;;;0.00;;
74177;SDS011;62540;48.456;-4.456;2022-10-15T13:29:18;0.00;;;0.00;;
74177;SDS011;62540;48.456;-4.456;2022-10-15T13:31:47;2.75;;;1.00;;
74177;SDS011;62540;48.456;-4.456;2022-10-15T13:34:27;2.00;;;0.00;;
74177;SDS011;62540;48.456;-4.456;2022-10-15T13:36:57;0.00;;;0.00;;
74177;SDS011;62540;48.456;-4.456;2022-10-15T13:42:04;1.00;;;0.00;;
74177;SDS011;62540;48.456;-4.456;2022-10-15T13:44:31;1.00;;;0.00;;
74177;SDS011;62540;48.456;-4.456;2022-10-15T13:46:56;1.00;;;0.00;;
74177;SDS011;62540;48.456;-4.456;2022-10-15T13:49:21;0.00;;;0.00;;
74177;SDS011;62540;48.456;-4.456;2022-10-15T13:51:48;0.00;;;0.00;;
74177;SDS011;62540;48.456;-4.456;2022-10-15T13:54:19;0.00;;;0.00;;
74177;SDS011;62540;48.456;-4.456;2022-10-15T13:59:23;0.00;;;0.00;;
74177;SDS011;62540;48.456;-4.456;2022-10-15T14:01:52;0.00;;;0.00;;
74177;SDS011;62540;48.456;-4.456;2022-10-15T14:04:25;0.00;;;0.00;;
74177;SDS011;62540;48.456;-4.456;2022-10-15T14:06:53;0.00;;;0.00;;
74177;SDS011;62540;48.456;-4.456;2022-10-15T14:09:35;2.00;;;0.00;;
74177;SDS011;62540;48.456;-4.456;2022-10-15T14:12:04;0.00;;;0.00;;
74177;SDS011;62540;48.456;-4.456;2022-10-15T14:14:32;0.00;;;0.00;;
74177;SDS011;62540;48.456;-4.456;2022-10-15T14:17:12;1.25;;;0.50;;
74177;SDS011;62540;48.456;-4.456;2022-10-15T14:19:51;0.00;;;0.00;;
74177;SDS011;62540;48.456;-4.456;2022-10-15T14:22:20;1.00;;;0.00;;
74177;SDS011;62540;48.456;-4.456;2022-10-15T14:24:48;1.00;;;0.00;;
74177;SDS011;62540;48.456;-4.456;2022-10-15T14:27:18;0.00;;;0.00;;
74177;SDS011;62540;48.456;-4.456;2022-10-15T14:29:47;0.00;;;0.00;;
74177;SDS011;62540;48.456;-4.456;2022-10-15T14:33:00;0.75;;;0.25;;
74177;SDS011;62540;48.456;-4.456;2022-10-15T14:38:01;1.25;;;0.00;;
74177;SDS011;62540;48.456;-4.456;2022-10-15T14:40:28;1.75;;;0.00;;
74177;SDS011;62540;48.456;-4.456;2022-10-15T14:45:23;0.00;;;0.00;;
74177;SDS011;62540;48.456;-4.456;2022-10-15T14:48:00;0.00;;;0.00;;
74177;SDS011;62540;48.456;-4.456;2022-10-15T14:50:33;0.25;;;0.25;;
74177;SDS011;62540;48.456;-4.456;2022-10-15T14:53:04;0.00;;;0.00;;
74177;SDS011;62540;48.456;-4.456;2022-10-15T14:55:33;2.50;;;0.00;;
74177;SDS011;62540;48.456;-4.456;2022-10-15T14:58:10;1.00;;;0.00;;
74177;SDS011;62540;48.456;-4.456;2022-10-15T15:00:42;0.00;;;0.00;;
74177;SDS011;62540;48.456;-4.456;2022-10-15T15:03:15;1.00;;;0.00;;
74177;SDS011;62540;48.456;-4.456;2022-10-15T15:05:47;1.25;;;0.00;;
74177;SDS011;62540;48.456;-4.456;2022-10-15T15:08:14;2.00;;;0.50;;
74177;SDS011;62540;48.456;-4.456;2022-10-15T15:10:40;0.00;;;0.00;;
74177;SDS011;62540;48.456;-4.456;2022-10-15T15:13:09;0.00;;;0.00;;
74177;SDS011;62540;48.456;-4.456;2022-10-15T15:15:36;0.00;;;0.00;;
74177;SDS011;62540;48.456;-4.456;2022-10-15T15:18:04;0.00;;;0.00;;
74177;SDS011;62540;48.456;-4.456;2022-10-15T15:20:29;0.00;;;0.00;;
74177;SDS011;62540;48.456;-4.456;2022-10-15T15:22:55;1.00;;;1.00;;
74177;SDS011;62540;48.456;-4.456;2022-10-15T15:25:28;1.00;;;1.00;;
74177;SDS011;62540;48.456;-4.456;2022-10-15T15:27:57;0.50;;;0.00;;
74177;SDS011;62540;48.456;-4.456;2022-10-15T15:30:23;1.00;;;0.00;;
74177;SDS011;62540;48.456;-4.456;2022-10-15T15:32:50;0.00;;;0.00;;
74177;SDS011;62540;48.456;-4.456;2022-10-15T15:35:23;0.00;;;0.00;;
74177;SDS011;62540;48.456;-4.456;2022-10-15T15:37:52;0.75;;;0.00;;
74177;SDS011;62540;48.456;-4.456;2022-10-15T15:40:18;0.00;;;0.00;;
74177;SDS011;62540;48.456;-4.456;2022-10-15T15:42:44;1.00;;;0.00;;
74177;SDS011;62540;48.456;-4.456;2022-10-15T15:45:13;0.00;;;0.00;;
74177;SDS011;62540;48.456;-4.456;2022-10-15T15:47:42;0.00;;;0.00;;
74177;SDS011;62540;48.456;-4.456;2022-10-15T15:50:08;0.25;;;0.25;;
74177;SDS011;62540;48.456;-4.456;2022-10-15T15:52:33;0.75;;;0.00;;
74177;SDS011;62540;48.456;-4.456;2022-10-15T15:54:58;0.00;;;0.00;;
74177;SDS011;62540;48.456;-4.456;2022-10-15T15:57:24;0.00;;;0.00;;
74177;SDS011;62540;48.456;-4.456;2022-10-15T15:59:49;0.00;;;0.00;;
74177;SDS011;62540;48.456;-4.456;2022-10-15T16:02:15;1.25;;;0.00;;
74177;SDS011;62540;48.456;-4.456;2022-10-15T16:04:40;1.00;;;0.00;;
74177;SDS011;62540;48.456;-4.456;2022-10-15T16:07:06;0.00;;;0.00;;
74177;SDS011;62540;48.456;-4.456;2022-10-15T16:09:31;0.00;;;0.00;;
74177;SDS011;62540;48.456;-4.456;2022-10-15T16:11:56;0.00;;;0.00;;
74177;SDS011;62540;48.456;-4.456;2022-10-15T16:14:22;0.00;;;0.00;;
74177;SDS011;62540;48.456;-4.456;2022-10-15T16:16:47;0.50;;;0.00;;
74177;SDS011;62540;48.456;-4.456;2022-10-15T16:19:13;0.00;;;0.00;;
74177;SDS011;62540;48.456;-4.456;2022-10-15T16:21:38;0.00;;;0.00;;
74177;SDS011;62540;48.456;-4.456;2022-10-15T16:24:04;0.00;;;0.00;;
74177;SDS011;62540;48.456;-4.456;2022-10-15T16:26:29;0.00;;;0.00;;
74177;SDS011;62540;48.456;-4.456;2022-10-15T16:28:55;0.75;;;0.75;;
74177;SDS011;62540;48.456;-4.456;2022-10-15T16:31:24;2.50;;;2.50;;
74177;SDS011;62540;48.456;-4.456;2022-10-15T16:33:53;2.00;;;0.00;;
74177;SDS011;62540;48.456;-4.456;2022-10-15T16:36:19;2.00;;;1.00;;
74177;SDS011;62540;48.456;-4.456;2022-10-15T16:38:45;1.75;;;1.00;;
74177;SDS011;62540;48.456;-4.456;2022-10-15T16:41:12;0.75;;;0.00;;
74177;SDS011;62540;48.456;-4.456;2022-10-15T16:43:38;0.25;;;0.25;;
74177;SDS011;62540;48.456;-4.456;2022-10-15T16:46:04;0.25;;;0.00;;
74177;SDS011;62540;48.456;-4.456;2022-10-15T16:48:30;1.00;;;0.00;;
74177;SDS011;62540;48.456;-4.456;2022-10-15T16:51:00;1.00;;;1.00;;
74177;SDS011;62540;48.456;-4.456;2022-10-15T16:53:26;1.25;;;1.00;;
74177;SDS011;62540;48.456;-4.456;2022-10-15T16:55:51;3.00;;;2.25;;
74177;SDS011;62540;48.456;-4.456;2022-10-15T16:58:17;3.50;;;2.00;;